createdAt,value
2019-05-09T00:00:03.889Z,7.93
2019-05-09T00:05:03.399Z,7.7
2019-05-09T00:10:04.083Z,7.71
2019-05-09T00:15:04.461Z,7.54
2019-05-09T00:20:03.513Z,7.71
2019-05-09T00:25:03.293Z,7.59
2019-05-09T00:30:03.726Z,7.65
2019-05-09T00:35:03.870Z,7.47
2019-05-09T00:40:01.268Z,7.55
2019-05-09T00:45:01.901Z,7.32
2019-05-09T00:50:02.011Z,7.38
2019-05-09T00:55:01.196Z,7.17
2019-05-09T01:00:01.361Z,7.16
2019-05-09T01:05:03.991Z,7.17
2019-05-09T01:10:04.056Z,7.29
2019-05-09T01:15:03.348Z,7.3
2019-05-09T01:20:03.417Z,7.5
2019-05-09T01:25:03.984Z,7.33
2019-05-09T01:30:01.297Z,7.53
2019-05-09T01:35:03.692Z,7.42
2019-05-09T01:40:04.152Z,7.44
2019-05-09T01:45:03.589Z,7.54
2019-05-09T01:50:03.881Z,7.71
2019-05-09T01:55:03.571Z,7.56
2019-05-09T02:00:03.989Z,7.62
2019-05-09T02:05:01.355Z,7.61
2019-05-09T02:10:03.406Z,7.58
2019-05-09T02:15:03.833Z,7.57
2019-05-09T02:20:01.136Z,7.59
2019-05-09T02:25:04.162Z,7.59
2019-05-09T02:30:05.213Z,7.63
2019-05-09T02:35:05.007Z,7.71
2019-05-09T02:40:01.424Z,7.78
2019-05-09T02:45:01.601Z,7.88
2019-05-09T02:50:01.709Z,7.81
2019-05-09T02:55:01.836Z,7.86
2019-05-09T03:00:01.943Z,7.87
2019-05-09T03:05:02.108Z,7.86
2019-05-09T03:10:01.204Z,7.91
2019-05-09T03:15:01.387Z,7.91
2019-05-09T03:20:01.491Z,7.92
2019-05-09T03:25:01.717Z,7.94
2019-05-09T03:30:01.855Z,7.89
2019-05-09T03:35:02.036Z,7.84
2019-05-09T03:40:01.153Z,7.73
2019-05-09T03:45:01.287Z,7.69
2019-05-09T03:50:01.393Z,7.64
2019-05-09T03:55:01.547Z,7.5
2019-05-09T04:00:01.645Z,7.44
2019-05-09T04:05:01.881Z,7.42
2019-05-09T04:10:01.988Z,7.59
2019-05-09T04:15:02.091Z,7.75
2019-05-09T04:20:01.221Z,7.74
2019-05-09T04:25:01.367Z,7.78
2019-05-09T04:30:01.491Z,7.74
2019-05-09T04:35:01.704Z,7.82
2019-05-09T04:40:03.268Z,7.92
2019-05-09T04:45:03.445Z,8.04
2019-05-09T04:50:01.853Z,8.19
2019-05-09T04:55:01.605Z,8.35
2019-05-09T05:00:01.741Z,8.47
2019-05-09T05:05:01.867Z,8.53
2019-05-09T05:10:01.978Z,8.57
2019-05-09T05:15:01.146Z,8.64
2019-05-09T05:20:01.270Z,8.91
2019-05-09T05:25:01.467Z,9.32
2019-05-09T05:30:01.603Z,9.29
2019-05-09T05:35:01.735Z,9.49
2019-05-09T05:40:01.849Z,10.05
2019-05-09T05:45:02.081Z,10.65
2019-05-09T05:50:01.225Z,10.77
2019-05-09T05:55:01.357Z,10.81
2019-05-09T06:00:01.477Z,11.13
2019-05-09T06:05:01.740Z,11.29
2019-05-09T06:10:01.840Z,11.55
2019-05-09T06:15:01.968Z,11.32
2019-05-09T06:20:02.300Z,11.31
2019-05-09T06:25:01.474Z,11.29
2019-05-09T06:30:01.567Z,11.01
2019-05-09T06:35:01.698Z,11.47
2019-05-09T06:40:01.948Z,11.38
2019-05-09T06:45:02.072Z,11.34
2019-05-09T06:50:01.172Z,12.13
2019-05-09T06:55:01.269Z,12.5
2019-05-09T07:00:01.458Z,12.14
2019-05-09T07:05:01.620Z,11.26
2019-05-09T07:10:01.754Z,10.97
2019-05-09T07:15:01.889Z,10.78
2019-05-09T07:20:02.123Z,10.86
2019-05-09T07:25:06.871Z,10.85
2019-05-09T07:30:01.491Z,10.82
2019-05-09T07:35:01.636Z,10.72
2019-05-09T07:40:01.842Z,10.7
2019-05-09T07:45:01.942Z,10.88
2019-05-09T07:50:02.034Z,10.92
2019-05-09T07:55:01.141Z,11.18
2019-05-09T08:00:01.271Z,11.66
2019-05-09T08:05:01.381Z,11.99
2019-05-09T08:10:01.550Z,11.59
2019-05-09T08:15:13.764Z,11.49
2019-05-09T08:20:01.469Z,11.2
2019-05-09T08:25:01.573Z,11.22
2019-05-09T08:30:01.671Z,11.28
2019-05-09T08:35:01.804Z,11.41
2019-05-09T08:40:01.961Z,11.53
2019-05-09T08:45:02.091Z,11.67
2019-05-09T08:50:01.207Z,11.75
2019-05-09T08:55:01.325Z,11.68
2019-05-09T09:00:01.532Z,11.81
2019-05-09T09:05:01.641Z,11.49
2019-05-09T09:10:01.747Z,11.49
2019-05-09T09:15:02.021Z,11.4
2019-05-09T09:20:01.302Z,11.62
2019-05-09T09:25:01.430Z,11.38
2019-05-09T09:30:16.618Z,11.24
2019-05-09T09:35:01.237Z,11.18
2019-05-09T09:40:01.362Z,11.11
2019-05-09T09:45:01.497Z,11.17
2019-05-09T09:50:01.600Z,11.37
2019-05-09T09:55:01.697Z,11.57
2019-05-09T10:00:01.903Z,11.6
2019-05-09T10:05:02.028Z,11.61
2019-05-09T10:10:01.123Z,11.64
2019-05-09T10:15:01.284Z,11.87
2019-05-09T10:20:01.409Z,12.06
2019-05-09T10:25:01.526Z,12.18
2019-05-09T10:30:01.627Z,12.34
2019-05-09T10:35:01.784Z,12.79
2019-05-09T10:40:01.917Z,13.04
2019-05-09T10:45:02.039Z,13.33
2019-05-09T10:50:01.134Z,13.37
2019-05-09T10:55:01.258Z,13.11
2019-05-09T11:00:01.475Z,13.45
2019-05-09T11:05:01.606Z,13.81
2019-05-09T11:10:01.703Z,14.29
2019-05-09T11:15:02.148Z,14.11
2019-05-09T11:20:01.329Z,14.35
2019-05-09T11:25:01.430Z,14
2019-05-09T11:30:01.565Z,13.73
2019-05-09T11:35:01.686Z,13.82
2019-05-09T11:40:01.821Z,14.6
2019-05-09T11:45:01.963Z,14.43
2019-05-09T11:50:02.067Z,14.77
2019-05-09T11:55:01.179Z,15.25
2019-05-09T12:00:01.322Z,15.52
2019-05-09T12:05:01.444Z,15.03
2019-05-09T12:10:01.555Z,14.82
2019-05-09T12:15:01.736Z,14.2
2019-05-09T12:20:10.617Z,14.13
2019-05-09T12:25:01.493Z,13.95
2019-05-09T12:30:01.609Z,13.94
2019-05-09T12:35:01.721Z,13.7
2019-05-09T12:40:01.871Z,13.44
2019-05-09T12:45:01.982Z,13.4
2019-05-09T12:50:02.889Z,13.63
2019-05-09T12:55:01.295Z,13.56
2019-05-09T13:00:01.464Z,13.74
2019-05-09T13:05:01.618Z,13.83
2019-05-09T13:10:01.718Z,13.64
2019-05-09T13:15:01.872Z,13.78
2019-05-09T13:20:02.100Z,13.66
2019-05-09T13:25:03.013Z,13.81
2019-05-09T13:30:01.313Z,13.91
2019-05-09T13:35:01.424Z,13.85
2019-05-09T13:40:01.595Z,13.9
2019-05-09T13:45:01.732Z,13.79
2019-05-09T13:50:01.850Z,13.81
2019-05-09T13:55:02.044Z,14.07
2019-05-09T14:00:01.407Z,14.2
2019-05-09T14:05:01.692Z,14.22
2019-05-09T14:10:01.882Z,14.24
2019-05-09T14:15:02.016Z,14.04
2019-05-09T14:20:01.446Z,14.07
2019-05-09T14:25:01.736Z,14.05
2019-05-09T14:30:01.849Z,14.08
2019-05-09T14:35:02.732Z,14.27
2019-05-09T14:40:04.382Z,14.28
2019-05-09T14:45:01.302Z,14.39
2019-05-09T14:50:01.406Z,14.6
2019-05-09T14:55:01.510Z,14.54
2019-05-09T15:00:01.714Z,14.66
2019-05-09T15:05:02.237Z,14.62
2019-05-09T15:10:01.938Z,14.53
2019-05-09T15:15:01.123Z,14.44
2019-05-09T15:20:01.302Z,14.32
2019-05-09T15:25:01.449Z,13.94
2019-05-09T15:30:01.573Z,13.89
2019-05-09T15:35:01.686Z,14.2
2019-05-09T15:40:01.872Z,14.39
2019-05-09T15:45:02.005Z,14.22
2019-05-09T15:50:15.439Z,14.36
2019-05-09T15:55:01.098Z,14.25
2019-05-09T16:00:01.282Z,14.08
2019-05-09T16:05:01.390Z,14.05
2019-05-09T16:10:01.491Z,14.14
2019-05-09T16:15:01.627Z,14.26
2019-05-09T16:20:01.756Z,14.29
2019-05-09T16:25:01.858Z,14.45
2019-05-09T16:30:01.988Z,14.68
2019-05-09T16:35:01.114Z,14.71
2019-05-09T16:40:01.241Z,14.68
2019-05-09T16:45:01.410Z,14.69
2019-05-09T16:50:01.535Z,14.67
2019-05-09T16:55:01.650Z,14.64
2019-05-09T17:00:02.631Z,14.65
2019-05-09T17:05:01.104Z,14.52
2019-05-09T17:10:01.203Z,14.48
2019-05-09T17:15:01.351Z,14.42
2019-05-09T17:20:01.479Z,14.4
2019-05-09T17:25:01.574Z,14.3
2019-05-09T17:30:01.703Z,14.23
2019-05-09T17:35:02.010Z,14.19
2019-05-09T17:40:01.210Z,14.2
2019-05-09T17:45:01.354Z,14.13
2019-05-09T17:50:01.472Z,14
2019-05-09T17:55:01.577Z,13.96
2019-05-09T18:00:01.770Z,13.86
2019-05-09T18:05:01.879Z,13.7
2019-05-09T18:10:01.978Z,13.65
2019-05-09T18:15:02.167Z,13.59
2019-05-09T18:20:01.280Z,13.48
2019-05-09T18:25:01.375Z,13.35
2019-05-09T18:30:01.515Z,13.25
2019-05-09T18:35:01.646Z,13.19
2019-05-09T18:40:01.750Z,13.12
2019-05-09T18:45:01.900Z,13.05
2019-05-09T18:50:02.092Z,12.9
2019-05-09T18:55:01.270Z,12.6
2019-05-09T19:00:01.411Z,11.74
2019-05-09T19:05:01.532Z,11.34
2019-05-09T19:10:01.723Z,11.09
2019-05-09T19:15:01.920Z,10.89
2019-05-09T19:20:02.022Z,10.75
2019-05-09T19:25:01.132Z,10.72
2019-05-09T19:30:01.265Z,10.73
2019-05-09T19:35:01.433Z,10.57
2019-05-09T19:40:01.543Z,10.65
2019-05-09T19:45:01.682Z,10.6
2019-05-09T19:50:02.075Z,10.62
2019-05-09T19:55:01.297Z,10.55
2019-05-09T20:00:01.408Z,10.51
2019-05-09T20:05:01.546Z,10.41
2019-05-09T20:10:01.650Z,10.35
2019-05-09T20:15:01.951Z,10.3
2019-05-09T20:20:02.154Z,10.29
2019-05-09T20:25:01.315Z,10.39
2019-05-09T20:30:01.467Z,10.31
2019-05-09T20:35:01.655Z,10.27
2019-05-09T20:40:01.755Z,10.34
2019-05-09T20:45:01.893Z,10.33
2019-05-09T20:50:01.996Z,10.31
2019-05-09T20:55:01.149Z,10.33
2019-05-09T21:00:01.304Z,10.27
2019-05-09T21:05:01.445Z,10.14
2019-05-09T21:10:01.564Z,10.13
2019-05-09T21:15:01.766Z,10.15
2019-05-09T21:20:01.886Z,10.13
2019-05-09T21:25:02.011Z,10.1
2019-05-09T21:30:01.123Z,10.07
2019-05-09T21:35:01.275Z,10.06
2019-05-09T21:40:01.371Z,10.03
2019-05-09T21:45:01.544Z,9.99
2019-05-09T21:50:01.698Z,9.97
2019-05-09T21:55:01.853Z,9.95
2019-05-09T22:00:01.992Z,9.93
2019-05-09T22:05:01.110Z,9.89
2019-05-09T22:10:01.209Z,9.85
2019-05-09T22:15:03.867Z,9.82
2019-05-09T22:20:01.248Z,9.8
2019-05-09T22:25:01.343Z,9.78
2019-05-09T22:30:01.523Z,9.92
2019-05-09T22:35:01.677Z,9.91
2019-05-09T22:40:01.805Z,9.85
2019-05-09T22:45:01.949Z,9.77
2019-05-09T22:50:02.061Z,9.68
2019-05-09T22:55:01.215Z,9.59
2019-05-09T23:00:01.466Z,9.41
2019-05-09T23:05:01.706Z,9.33
2019-05-09T23:10:01.808Z,9.12
2019-05-09T23:15:01.932Z,8.98
2019-05-09T23:20:02.161Z,8.85
2019-05-09T23:25:01.269Z,8.76
2019-05-09T23:30:01.406Z,8.53
2019-05-09T23:35:01.623Z,8.62
2019-05-09T23:40:01.843Z,8.42
2019-05-09T23:45:01.991Z,8.5
2019-05-09T23:50:01.129Z,8.71
2019-05-09T23:55:01.291Z,8.68
